sensor_id;sensor_type;location;lat;lon;timestamp;pressure;altitude;pressure_sealevel;temperature;humidity
69245;BME280;56357;52.304;4.870;2022-07-29T00:02:26;102064.63;;;22.21;47.46
69245;BME280;56357;52.304;4.870;2022-07-29T00:04:53;102061.84;;;22.26;47.82
69245;BME280;56357;52.304;4.870;2022-07-29T00:07:19;102066.38;;;22.32;47.49
69245;BME280;56357;52.304;4.870;2022-07-29T00:09:46;102063.22;;;22.23;47.54
69245;BME280;56357;52.304;4.870;2022-07-29T00:12:12;102060.13;;;22.15;47.81
69245;BME280;56357;52.304;4.870;2022-07-29T00:14:38;102061.28;;;22.19;47.72
69245;BME280;56357;52.304;4.870;2022-07-29T00:17:05;102051.38;;;22.21;47.58
69245;BME280;56357;52.304;4.870;2022-07-29T00:19:31;102057.31;;;22.20;47.66
69245;BME280;56357;52.304;4.870;2022-07-29T00:21:59;102059.00;;;22.21;47.77
69245;BME280;56357;52.304;4.870;2022-07-29T00:24:25;102049.66;;;22.15;48.03
69245;BME280;56357;52.304;4.870;2022-07-29T00:26:52;102044.91;;;22.26;47.63
69245;BME280;56357;52.304;4.870;2022-07-29T00:29:18;102044.59;;;22.12;47.73
69245;BME280;56357;52.304;4.870;2022-07-29T00:31:45;102032.19;;;22.18;47.43
69245;BME280;56357;52.304;4.870;2022-07-29T00:34:11;102031.34;;;22.23;48.06
69245;BME280;56357;52.304;4.870;2022-07-29T00:36:51;102030.50;;;22.17;47.91
69245;BME280;56357;52.304;4.870;2022-07-29T00:39:18;102030.50;;;22.17;48.03
69245;BME280;56357;52.304;4.870;2022-07-29T00:41:44;102028.25;;;22.14;47.91
69245;BME280;56357;52.304;4.870;2022-07-29T00:44:11;102031.06;;;22.09;47.64
69245;BME280;56357;52.304;4.870;2022-07-29T00:46:37;102029.63;;;22.12;47.74
69245;BME280;56357;52.304;4.870;2022-07-29T00:49:03;102027.66;;;22.12;47.63
69245;BME280;56357;52.304;4.870;2022-07-29T00:51:32;102030.22;;;22.09;47.36
69245;BME280;56357;52.304;4.870;2022-07-29T00:53:58;102024.00;;;22.07;47.65
69245;BME280;56357;52.304;4.870;2022-07-29T00:56:25;102022.28;;;22.06;48.26
69245;BME280;56357;52.304;4.870;2022-07-29T00:58:52;102021.72;;;21.99;47.67
69245;BME280;56357;52.304;4.870;2022-07-29T01:01:19;102020.59;;;22.10;47.84
69245;BME280;56357;52.304;4.870;2022-07-29T01:03:46;102017.78;;;22.05;47.50
69245;BME280;56357;52.304;4.870;2022-07-29T01:06:12;102016.66;;;22.01;48.32
69245;BME280;56357;52.304;4.870;2022-07-29T01:08:39;102019.47;;;22.06;48.04
69245;BME280;56357;52.304;4.870;2022-07-29T01:11:06;102015.78;;;22.00;47.90
69245;BME280;56357;52.304;4.870;2022-07-29T01:13:33;102018.88;;;22.04;47.79
69245;BME280;56357;52.304;4.870;2022-07-29T01:16:04;102013.25;;;21.99;47.74
69245;BME280;56357;52.304;4.870;2022-07-29T01:18:39;102022.56;;;21.99;48.22
69245;BME280;56357;52.304;4.870;2022-07-29T01:26:47;102003.94;;;21.93;48.25
69245;BME280;56357;52.304;4.870;2022-07-29T01:29:29;102009.28;;;21.95;48.11
69245;BME280;56357;52.304;4.870;2022-07-29T01:31:59;102000.53;;;21.86;48.17
69245;BME280;56357;52.304;4.870;2022-07-29T01:34:34;102000.22;;;21.82;48.05
69245;BME280;56357;52.304;4.870;2022-07-29T01:37:04;102001.13;;;21.88;48.67
69245;BME280;56357;52.304;4.870;2022-07-29T01:39:35;102003.63;;;21.84;48.59
69245;BME280;56357;52.304;4.870;2022-07-29T01:44:55;101999.13;;;21.89;48.00
69245;BME280;56357;52.304;4.870;2022-07-29T01:47:26;101995.44;;;21.83;48.08
69245;BME280;56357;52.304;4.870;2022-07-29T01:49:56;101999.69;;;21.86;48.34
69245;BME280;56357;52.304;4.870;2022-07-29T01:52:33;102001.66;;;21.80;48.20
69245;BME280;56357;52.304;4.870;2022-07-29T01:55:06;101994.88;;;21.81;48.26
69245;BME280;56357;52.304;4.870;2022-07-29T01:57:34;101991.19;;;21.80;48.32
69245;BME280;56357;52.304;4.870;2022-07-29T02:00:05;101994.59;;;21.82;48.12
69245;BME280;56357;52.304;4.870;2022-07-29T02:02:32;101994.28;;;21.79;48.58
69245;BME280;56357;52.304;4.870;2022-07-29T02:05:01;101989.47;;;21.74;48.58
69245;BME280;56357;52.304;4.870;2022-07-29T02:07:29;101987.25;;;21.76;48.36
69245;BME280;56357;52.304;4.870;2022-07-29T02:09:58;101986.09;;;21.72;48.68
69245;BME280;56357;52.304;4.870;2022-07-29T02:12:25;101980.47;;;21.72;48.64
69245;BME280;56357;52.304;4.870;2022-07-29T02:14:53;101982.38;;;21.67;48.80
69245;BME280;56357;52.304;4.870;2022-07-29T02:17:27;101982.97;;;21.69;48.85
69245;BME280;56357;52.304;4.870;2022-07-29T02:19:57;101973.09;;;21.66;48.83
69245;BME280;56357;52.304;4.870;2022-07-29T02:22:26;101977.88;;;21.66;49.23
69245;BME280;56357;52.304;4.870;2022-07-29T02:24:55;101978.47;;;21.63;49.23
69245;BME280;56357;52.304;4.870;2022-07-29T02:27:22;101975.31;;;21.59;49.45
69245;BME280;56357;52.304;4.870;2022-07-29T02:29:51;101973.34;;;21.60;49.20
69245;BME280;56357;52.304;4.870;2022-07-29T02:32:18;101973.34;;;21.60;49.50
69245;BME280;56357;52.304;4.870;2022-07-29T02:34:47;101977.84;;;21.56;49.59
69245;BME280;56357;52.304;4.870;2022-07-29T02:37:16;101968.00;;;21.53;49.59
69245;BME280;56357;52.304;4.870;2022-07-29T02:39:45;101981.53;;;21.56;49.33
69245;BME280;56357;52.304;4.870;2022-07-29T02:42:16;101984.06;;;21.53;49.60
69245;BME280;56357;52.304;4.870;2022-07-29T02:44:43;101978.41;;;21.53;49.83
69245;BME280;56357;52.304;4.870;2022-07-29T02:49:52;101981.75;;;21.50;49.52
69245;BME280;56357;52.304;4.870;2022-07-29T02:52:31;101972.50;;;21.49;49.81
69245;BME280;56357;52.304;4.870;2022-07-29T02:57:58;101971.88;;;21.42;49.78
69245;BME280;56357;52.304;4.870;2022-07-29T03:00:29;101972.44;;;21.44;49.79
69245;BME280;56357;52.304;4.870;2022-07-29T03:02:59;101966.81;;;21.44;49.66
69245;BME280;56357;52.304;4.870;2022-07-29T03:05:25;101963.72;;;21.41;49.75
69245;BME280;56357;52.304;4.870;2022-07-29T03:07:58;101958.06;;;21.41;49.80
69245;BME280;56357;52.304;4.870;2022-07-29T03:10:28;101963.72;;;21.41;49.62
69245;BME280;56357;52.304;4.870;2022-07-29T03:12:55;101964.84;;;21.45;49.50
69245;BME280;56357;52.304;4.870;2022-07-29T03:15:23;101966.81;;;21.39;49.47
69245;BME280;56357;52.304;4.870;2022-07-29T03:17:51;101967.66;;;21.40;49.46
69245;BME280;56357;52.304;4.870;2022-07-29T03:20:19;101966.81;;;21.34;49.45
69245;BME280;56357;52.304;4.870;2022-07-29T03:22:46;101960.31;;;21.39;49.17
69245;BME280;56357;52.304;4.870;2022-07-29T03:25:14;101965.38;;;21.37;49.41
69245;BME280;56357;52.304;4.870;2022-07-29T03:27:41;101958.63;;;21.38;49.49
69245;BME280;56357;52.304;4.870;2022-07-29T03:30:08;101962.84;;;21.35;49.25
69245;BME280;56357;52.304;4.870;2022-07-29T03:32:36;101960.88;;;21.36;49.11
69245;BME280;56357;52.304;4.870;2022-07-29T03:35:03;101963.41;;;21.37;49.31
69245;BME280;56357;52.304;4.870;2022-07-29T03:37:30;101963.97;;;21.34;48.81
69245;BME280;56357;52.304;4.870;2022-07-29T03:40:00;101949.31;;;21.42;49.12
69245;BME280;56357;52.304;4.870;2022-07-29T03:42:31;101953.53;;;21.35;49.08
69245;BME280;56357;52.304;4.870;2022-07-29T03:45:00;101952.16;;;21.37;49.28
69245;BME280;56357;52.304;4.870;2022-07-29T03:47:28;101941.72;;;21.38;49.08
69245;BME280;56357;52.304;4.870;2022-07-29T03:49:59;101941.69;;;21.33;49.03
69245;BME280;56357;52.304;4.870;2022-07-29T03:52:26;101941.97;;;21.31;48.94
69245;BME280;56357;52.304;4.870;2022-07-29T03:54:52;101946.25;;;21.44;49.22
69245;BME280;56357;52.304;4.870;2022-07-29T03:57:23;101946.81;;;21.46;49.17
69245;BME280;56357;52.304;4.870;2022-07-29T03:59:51;101941.44;;;21.44;48.91
69245;BME280;56357;52.304;4.870;2022-07-29T04:02:18;101942.28;;;21.40;49.25
69245;BME280;56357;52.304;4.870;2022-07-29T04:04:46;101942.53;;;21.38;48.94
69245;BME280;56357;52.304;4.870;2022-07-29T04:07:13;101946.50;;;21.32;49.07
69245;BME280;56357;52.304;4.870;2022-07-29T04:09:41;101945.13;;;21.40;48.91
69245;BME280;56357;52.304;4.870;2022-07-29T04:12:07;101942.81;;;21.32;48.85
69245;BME280;56357;52.304;4.870;2022-07-29T04:14:34;101956.34;;;21.30;49.29
69245;BME280;56357;52.304;4.870;2022-07-29T04:17:02;101955.78;;;21.33;49.31
69245;BME280;56357;52.304;4.870;2022-07-29T04:19:29;101960.03;;;21.35;49.11
69245;BME280;56357;52.304;4.870;2022-07-29T04:21:57;101953.25;;;21.31;49.30
69245;BME280;56357;52.304;4.870;2022-07-29T04:24:24;101958.34;;;21.34;48.83
69245;BME280;56357;52.304;4.870;2022-07-29T04:26:51;101953.25;;;21.36;49.35
69245;BME280;56357;52.304;4.870;2022-07-29T04:29:18;101948.47;;;21.32;48.90
69245;BME280;56357;52.304;4.870;2022-07-29T04:31:45;101953.53;;;21.30;49.17
69245;BME280;56357;52.304;4.870;2022-07-29T04:34:11;101955.53;;;21.34;49.10
69245;BME280;56357;52.304;4.870;2022-07-29T04:36:38;101959.44;;;21.33;49.10
69245;BME280;56357;52.304;4.870;2022-07-29T04:39:04;101952.72;;;21.34;49.06
69245;BME280;56357;52.304;4.870;2022-07-29T04:41:31;101958.59;;;21.33;49.11
69245;BME280;56357;52.304;4.870;2022-07-29T04:43:57;101954.97;;;21.32;49.15
69245;BME280;56357;52.304;4.870;2022-07-29T04:46:25;101953.81;;;21.33;48.98
69245;BME280;56357;52.304;4.870;2022-07-29T04:48:52;101957.19;;;21.30;49.26
69245;BME280;56357;52.304;4.870;2022-07-29T04:51:19;101953.53;;;21.30;49.50
69245;BME280;56357;52.304;4.870;2022-07-29T04:53:45;101955.22;;;21.31;49.51
69245;BME280;56357;52.304;4.870;2022-07-29T04:56:11;101952.13;;;21.32;49.33
69245;BME280;56357;52.304;4.870;2022-07-29T04:58:38;101948.47;;;21.32;49.62
69245;BME280;56357;52.304;4.870;2022-07-29T05:01:04;101949.28;;;21.27;49.84
69245;BME280;56357;52.304;4.870;2022-07-29T05:03:31;101941.97;;;21.26;49.64
69245;BME280;56357;52.304;4.870;2022-07-29T05:05:57;101941.41;;;21.29;49.82
69245;BME280;56357;52.304;4.870;2022-07-29T05:08:23;101930.13;;;21.29;49.78
69245;BME280;56357;52.304;4.870;2022-07-29T05:10:50;101943.69;;;21.32;49.80
69245;BME280;56357;52.304;4.870;2022-07-29T05:13:16;101939.16;;;21.36;49.94
69245;BME280;56357;52.304;4.870;2022-07-29T05:15:43;101947.59;;;21.31;50.09
69245;BME280;56357;52.304;4.870;2022-07-29T05:18:09;101949.31;;;21.32;49.81
69245;BME280;56357;52.304;4.870;2022-07-29T05:20:35;101952.13;;;21.32;50.04
69245;BME280;56357;52.304;4.870;2022-07-29T05:23:02;101951.56;;;21.35;49.90
69245;BME280;56357;52.304;4.870;2022-07-29T05:25:29;101951.28;;;21.37;49.88
69245;BME280;56357;52.304;4.870;2022-07-29T05:27:56;101949.59;;;21.36;50.03
69245;BME280;56357;52.304;4.870;2022-07-29T05:30:23;101954.38;;;21.35;49.96
69245;BME280;56357;52.304;4.870;2022-07-29T05:32:49;101958.88;;;21.36;49.96
69245;BME280;56357;52.304;4.870;2022-07-29T05:35:16;101955.25;;;21.36;49.95
69245;BME280;56357;52.304;4.870;2022-07-29T05:37:42;101943.13;;;21.40;49.88
69245;BME280;56357;52.304;4.870;2022-07-29T05:40:09;101947.06;;;21.39;49.88
69245;BME280;56357;52.304;4.870;2022-07-29T05:42:35;101953.56;;;21.40;50.05
69245;BME280;56357;52.304;4.870;2022-07-29T05:45:02;101962.31;;;21.43;49.46
69245;BME280;56357;52.304;4.870;2022-07-29T05:47:28;101952.72;;;21.39;50.01
69245;BME280;56357;52.304;4.870;2022-07-29T05:49:55;101957.22;;;21.40;49.85
69245;BME280;56357;52.304;4.870;2022-07-29T05:52:22;101960.59;;;21.37;50.12
69245;BME280;56357;52.304;4.870;2022-07-29T05:54:48;101961.75;;;21.41;50.09
69245;BME280;56357;52.304;4.870;2022-07-29T05:57:20;101975.03;;;21.51;49.97
69245;BME280;56357;52.304;4.870;2022-07-29T05:59:48;101970.78;;;21.48;49.62
69245;BME280;56357;52.304;4.870;2022-07-29T06:02:15;101967.94;;;21.43;49.87
69245;BME280;56357;52.304;4.870;2022-07-29T06:04:42;101968.81;;;21.49;49.83
69245;BME280;56357;52.304;4.870;2022-07-29T06:07:08;101956.41;;;21.50;49.78
69245;BME280;56357;52.304;4.870;2022-07-29T06:09:35;101952.75;;;21.49;49.64
69245;BME280;56357;52.304;4.870;2022-07-29T06:12:01;101949.94;;;21.49;49.69
69245;BME280;56357;52.304;4.870;2022-07-29T06:14:28;101951.66;;;21.55;49.33
69245;BME280;56357;52.304;4.870;2022-07-29T06:16:55;101957.25;;;21.50;49.83
69245;BME280;56357;52.304;4.870;2022-07-29T06:19:21;101954.47;;;21.55;49.54
69245;BME280;56357;52.304;4.870;2022-07-29T06:21:48;101958.41;;;21.54;49.52
69245;BME280;56357;52.304;4.870;2022-07-29T06:24:15;101961.22;;;21.54;49.77
69245;BME280;56357;52.304;4.870;2022-07-29T06:26:42;101961.22;;;21.54;49.40
69245;BME280;56357;52.304;4.870;2022-07-29T06:29:09;101959.28;;;21.65;49.45
69245;BME280;56357;52.304;4.870;2022-07-29T06:31:36;101959.28;;;21.70;49.25
69245;BME280;56357;52.304;4.870;2022-07-29T06:34:03;101966.34;;;21.72;48.89
69245;BME280;56357;52.304;4.870;2022-07-29T06:36:34;101980.50;;;21.82;48.68
69245;BME280;56357;52.304;4.870;2022-07-29T06:39:06;101987.88;;;21.99;48.55
69245;BME280;56357;52.304;4.870;2022-07-29T06:41:33;101984.47;;;22.02;48.55
69245;BME280;56357;52.304;4.870;2022-07-29T06:44:00;101983.66;;;22.01;48.20
69245;BME280;56357;52.304;4.870;2022-07-29T06:46:26;101981.09;;;22.05;48.53
69245;BME280;56357;52.304;4.870;2022-07-29T06:48:54;101981.09;;;22.05;48.11
69245;BME280;56357;52.304;4.870;2022-07-29T06:51:21;101976.88;;;21.97;48.58
69245;BME280;56357;52.304;4.870;2022-07-29T06:53:47;101978.53;;;21.98;48.32
69245;BME280;56357;52.304;4.870;2022-07-29T06:56:14;101976.00;;;21.97;48.65
69245;BME280;56357;52.304;4.870;2022-07-29T06:58:40;101984.75;;;21.95;48.35
69245;BME280;56357;52.304;4.870;2022-07-29T07:01:07;101993.47;;;21.89;48.47
69245;BME280;56357;52.304;4.870;2022-07-29T07:03:33;101988.41;;;21.86;48.68
69245;BME280;56357;52.304;4.870;2022-07-29T07:06:00;101986.13;;;21.82;48.86
69245;BME280;56357;52.304;4.870;2022-07-29T07:08:26;101987.84;;;21.83;48.84
69245;BME280;56357;52.304;4.870;2022-07-29T07:10:53;101986.72;;;21.90;48.84
69245;BME280;56357;52.304;4.870;2022-07-29T07:13:20;101987.28;;;21.97;48.39
69245;BME280;56357;52.304;4.870;2022-07-29T07:15:46;101992.94;;;21.97;48.57
69245;BME280;56357;52.304;4.870;2022-07-29T07:18:14;101988.41;;;21.91;48.99
69245;BME280;56357;52.304;4.870;2022-07-29T07:20:41;101989.25;;;21.96;48.64
69245;BME280;56357;52.304;4.870;2022-07-29T07:23:07;101997.47;;;21.98;48.62
69245;BME280;56357;52.304;4.870;2022-07-29T07:25:34;101993.25;;;22.05;48.41
69245;BME280;56357;52.304;4.870;2022-07-29T07:28:00;101995.78;;;22.22;48.15
69245;BME280;56357;52.304;4.870;2022-07-29T07:30:27;102002.00;;;22.29;47.93
69245;BME280;56357;52.304;4.870;2022-07-29T07:32:54;101998.06;;;22.35;48.27
69245;BME280;56357;52.304;4.870;2022-07-29T07:35:21;101998.06;;;22.35;47.85
69245;BME280;56357;52.304;4.870;2022-07-29T07:37:47;102001.75;;;22.45;47.43
69245;BME280;56357;52.304;4.870;2022-07-29T07:40:14;101998.63;;;22.52;47.51
69245;BME280;56357;52.304;4.870;2022-07-29T07:42:41;101999.47;;;22.47;47.33
69245;BME280;56357;52.304;4.870;2022-07-29T07:45:08;101997.47;;;22.48;47.66
69245;BME280;56357;52.304;4.870;2022-07-29T07:47:36;101986.50;;;22.41;47.72
69245;BME280;56357;52.304;4.870;2022-07-29T07:50:05;101990.16;;;22.47;47.54
69245;BME280;56357;52.304;4.870;2022-07-29T07:52:32;101992.97;;;22.42;47.94
69245;BME280;56357;52.304;4.870;2022-07-29T07:54:59;101995.53;;;22.43;47.80
69245;BME280;56357;52.304;4.870;2022-07-29T07:57:26;102003.72;;;22.40;47.94
69245;BME280;56357;52.304;4.870;2022-07-29T07:59:52;101999.75;;;22.56;47.47
69245;BME280;56357;52.304;4.870;2022-07-29T08:02:18;102003.44;;;22.51;48.25
69245;BME280;56357;52.304;4.870;2022-07-29T08:04:45;101989.88;;;22.48;47.87
69245;BME280;56357;52.304;4.870;2022-07-29T08:07:11;101990.44;;;22.50;47.76
69245;BME280;56357;52.304;4.870;2022-07-29T08:09:39;101997.53;;;22.63;47.41
69245;BME280;56357;52.304;4.870;2022-07-29T08:12:06;101998.38;;;22.58;47.62
69245;BME280;56357;52.304;4.870;2022-07-29T08:14:33;101995.81;;;22.62;47.53
69245;BME280;56357;52.304;4.870;2022-07-29T08:16:59;102003.72;;;22.70;47.45
69245;BME280;56357;52.304;4.870;2022-07-29T08:19:25;101998.09;;;22.70;47.42
69245;BME280;56357;52.304;4.870;2022-07-29T08:21:52;102000.88;;;22.65;47.38
69245;BME280;56357;52.304;4.870;2022-07-29T08:24:20;102007.09;;;22.67;47.52
69245;BME280;56357;52.304;4.870;2022-07-29T08:27:04;102001.44;;;22.67;47.63
69245;BME280;56357;52.304;4.870;2022-07-29T08:29:30;101996.66;;;22.67;47.54
69245;BME280;56357;52.304;4.870;2022-07-29T08:31:56;102004.59;;;22.70;47.67
69245;BME280;56357;52.304;4.870;2022-07-29T08:34:23;102011.06;;;22.66;47.64
69245;BME280;56357;52.304;4.870;2022-07-29T08:36:49;102008.81;;;22.78;47.76
69245;BME280;56357;52.304;4.870;2022-07-29T08:39:16;102007.66;;;22.89;47.04
69245;BME280;56357;52.304;4.870;2022-07-29T08:41:43;102006.50;;;22.95;46.92
69245;BME280;56357;52.304;4.870;2022-07-29T08:44:09;102009.31;;;23.05;46.83
69245;BME280;56357;52.304;4.870;2022-07-29T08:46:37;102012.66;;;23.17;46.75
69245;BME280;56357;52.304;4.870;2022-07-29T08:49:04;102003.03;;;23.23;46.22
69245;BME280;56357;52.304;4.870;2022-07-29T08:51:33;101996.53;;;23.28;46.16
69245;BME280;56357;52.304;4.870;2022-07-29T08:54:01;102001.31;;;23.42;46.15
69245;BME280;56357;52.304;4.870;2022-07-29T08:56:28;102002.69;;;23.50;45.91
69245;BME280;56357;52.304;4.870;2022-07-29T08:58:57;102008.59;;;23.58;46.19
69245;BME280;56357;52.304;4.870;2022-07-29T09:01:27;102013.91;;;23.70;45.54
69245;BME280;56357;52.304;4.870;2022-07-29T09:03:55;102012.19;;;23.74;45.52
69245;BME280;56357;52.304;4.870;2022-07-29T09:06:23;102007.66;;;23.78;45.29
69245;BME280;56357;52.304;4.870;2022-07-29T09:08:53;102013.53;;;23.87;45.28
69245;BME280;56357;52.304;4.870;2022-07-29T09:11:20;102011.00;;;23.85;45.43
69245;BME280;56357;52.304;4.870;2022-07-29T09:13:46;102011.84;;;23.86;44.76
69245;BME280;56357;52.304;4.870;2022-07-29T09:16:14;101997.09;;;23.89;45.10
69245;BME280;56357;52.304;4.870;2022-07-29T09:18:45;101993.41;;;23.88;45.17
69245;BME280;56357;52.304;4.870;2022-07-29T09:21:14;101990.88;;;23.92;44.99
69245;BME280;56357;52.304;4.870;2022-07-29T09:24:09;101982.66;;;23.90;44.82
69245;BME280;56357;52.304;4.870;2022-07-29T09:26:42;101989.44;;;23.94;45.02
69245;BME280;56357;52.304;4.870;2022-07-29T09:29:17;101984.56;;;24.00;45.08
69245;BME280;56357;52.304;4.870;2022-07-29T09:31:49;101982.88;;;24.09;45.04
69245;BME280;56357;52.304;4.870;2022-07-29T09:34:23;101985.09;;;24.12;44.82
69245;BME280;56357;52.304;4.870;2022-07-29T09:36:50;101987.22;;;24.30;44.02
69245;BME280;56357;52.304;4.870;2022-07-29T09:39:27;101987.13;;;24.40;44.00
69245;BME280;56357;52.304;4.870;2022-07-29T09:41:56;101982.81;;;24.47;43.59
69245;BME280;56357;52.304;4.870;2022-07-29T09:44:23;101978.25;;;24.51;43.72
69245;BME280;56357;52.304;4.870;2022-07-29T09:49:22;101978.72;;;24.64;43.54
69245;BME280;56357;52.304;4.870;2022-07-29T09:52:08;101982.88;;;24.71;43.29
69245;BME280;56357;52.304;4.870;2022-07-29T09:54:36;101976.72;;;24.64;43.74
69245;BME280;56357;52.304;4.870;2022-07-29T09:57:05;101978.78;;;24.59;44.20
69245;BME280;56357;52.304;4.870;2022-07-29T09:59:32;101986.34;;;24.63;43.80
69245;BME280;56357;52.304;4.870;2022-07-29T10:01:59;101992.53;;;24.70;44.34
69245;BME280;56357;52.304;4.870;2022-07-29T10:04:39;101993.59;;;24.79;44.40
69245;BME280;56357;52.304;4.870;2022-07-29T10:07:06;101996.94;;;24.86;44.13
69245;BME280;56357;52.304;4.870;2022-07-29T10:09:33;101995.81;;;24.82;44.14
69245;BME280;56357;52.304;4.870;2022-07-29T10:12:17;101992.09;;;24.87;43.98
69245;BME280;56357;52.304;4.870;2022-07-29T10:14:44;101992.41;;;24.85;44.51
69245;BME280;56357;52.304;4.870;2022-07-29T10:17:10;101984.47;;;24.87;44.49
69245;BME280;56357;52.304;4.870;2022-07-29T10:19:38;101985.31;;;24.88;44.40
69245;BME280;56357;52.304;4.870;2022-07-29T10:22:07;101994.00;;;24.96;44.20
69245;BME280;56357;52.304;4.870;2022-07-29T10:24:34;101992.00;;;24.97;44.31
69245;BME280;56357;52.304;4.870;2022-07-29T10:27:04;101990.84;;;24.98;43.80
69245;BME280;56357;52.304;4.870;2022-07-29T10:29:30;101985.41;;;25.01;44.05
69245;BME280;56357;52.304;4.870;2022-07-29T10:37:36;101987.59;;;25.09;43.91
69245;BME280;56357;52.304;4.870;2022-07-29T10:40:11;101988.66;;;25.18;44.35
69245;BME280;56357;52.304;4.870;2022-07-29T10:43:00;101987.25;;;25.16;43.72
69245;BME280;56357;52.304;4.870;2022-07-29T10:45:34;101986.94;;;25.17;43.19
69245;BME280;56357;52.304;4.870;2022-07-29T10:48:04;101988.53;;;25.05;43.93
69245;BME280;56357;52.304;4.870;2022-07-29T10:50:53;101987.59;;;25.09;44.20
69245;BME280;56357;52.304;4.870;2022-07-29T10:53:24;101983.44;;;25.02;44.52
69245;BME280;56357;52.304;4.870;2022-07-29T10:55:51;101996.72;;;25.06;45.80
69245;BME280;56357;52.304;4.870;2022-07-29T10:58:20;101994.53;;;24.98;45.18
69245;BME280;56357;52.304;4.870;2022-07-29T11:00:52;101986.44;;;24.87;45.01
69245;BME280;56357;52.304;4.870;2022-07-29T11:06:11;101981.97;;;24.81;45.54
69245;BME280;56357;52.304;4.870;2022-07-29T11:08:38;101977.72;;;24.78;45.92
69245;BME280;56357;52.304;4.870;2022-07-29T11:13:47;101968.72;;;24.76;44.99
69245;BME280;56357;52.304;4.870;2022-07-29T11:16:16;101978.59;;;24.79;45.01
69245;BME280;56357;52.304;4.870;2022-07-29T11:21:39;101972.56;;;24.85;45.39
69245;BME280;56357;52.304;4.870;2022-07-29T11:26:40;101983.31;;;24.88;45.98
69245;BME280;56357;52.304;4.870;2022-07-29T11:29:20;101965.41;;;24.93;46.30
69245;BME280;56357;52.304;4.870;2022-07-29T11:31:50;101973.31;;;24.96;45.79
69245;BME280;56357;52.304;4.870;2022-07-29T11:39:38;101974.91;;;25.07;45.06
69245;BME280;56357;52.304;4.870;2022-07-29T11:47:26;101970.34;;;25.06;45.98
69245;BME280;56357;52.304;4.870;2022-07-29T11:49:55;101967.88;;;24.99;44.58
69245;BME280;56357;52.304;4.870;2022-07-29T11:52:23;101966.19;;;24.98;44.74
69245;BME280;56357;52.304;4.870;2022-07-29T11:54:50;101968.06;;;25.08;45.14
69245;BME280;56357;52.304;4.870;2022-07-29T11:57:18;101967.44;;;25.11;45.47
69245;BME280;56357;52.304;4.870;2022-07-29T11:59:46;101983.88;;;25.14;45.53
69245;BME280;56357;52.304;4.870;2022-07-29T12:02:14;101968.84;;;25.13;45.60
69245;BME280;56357;52.304;4.870;2022-07-29T12:07:29;101971.09;;;25.16;46.09
69245;BME280;56357;52.304;4.870;2022-07-29T12:09:56;101969.09;;;25.17;45.92
69245;BME280;56357;52.304;4.870;2022-07-29T12:12:24;101964.28;;;25.17;45.51
69245;BME280;56357;52.304;4.870;2022-07-29T12:14:51;101961.97;;;25.19;45.67
69245;BME280;56357;52.304;4.870;2022-07-29T12:17:29;101966.22;;;25.22;45.37
69245;BME280;56357;52.304;4.870;2022-07-29T12:19:57;101971.03;;;25.21;45.84
69245;BME280;56357;52.304;4.870;2022-07-29T12:22:29;101967.88;;;25.23;46.37
69245;BME280;56357;52.304;4.870;2022-07-29T12:27:31;101969.59;;;25.24;46.95
69245;BME280;56357;52.304;4.870;2022-07-29T12:30:04;101973.78;;;25.26;46.77
69245;BME280;56357;52.304;4.870;2022-07-29T12:32:36;101977.13;;;25.33;46.87
69245;BME280;56357;52.304;4.870;2022-07-29T12:35:08;101976.78;;;25.40;46.46
69245;BME280;56357;52.304;4.870;2022-07-29T12:37:35;101975.38;;;25.37;46.65
69245;BME280;56357;52.304;4.870;2022-07-29T12:40:03;101979.88;;;25.38;46.32
69245;BME280;56357;52.304;4.870;2022-07-29T12:42:31;101983.28;;;25.41;46.23
69245;BME280;56357;52.304;4.870;2022-07-29T12:44:57;101978.72;;;25.45;46.42
69245;BME280;56357;52.304;4.870;2022-07-29T12:47:24;101986.31;;;25.49;46.42
69245;BME280;56357;52.304;4.870;2022-07-29T12:49:51;101977.19;;;25.52;46.28
69245;BME280;56357;52.304;4.870;2022-07-29T12:52:34;101983.63;;;25.58;46.73
69245;BME280;56357;52.304;4.870;2022-07-29T12:55:01;101984.25;;;25.55;46.09
69245;BME280;56357;52.304;4.870;2022-07-29T12:57:27;101988.78;;;25.56;47.50
69245;BME280;56357;52.304;4.870;2022-07-29T13:02:33;101981.53;;;25.68;47.42
69245;BME280;56357;52.304;4.870;2022-07-29T13:05:00;101976.84;;;25.77;47.18
69245;BME280;56357;52.304;4.870;2022-07-29T13:07:30;101970.00;;;25.78;47.21
69245;BME280;56357;52.304;4.870;2022-07-29T13:10:14;101975.84;;;25.87;46.59
69245;BME280;56357;52.304;4.870;2022-07-29T13:13:06;101974.09;;;25.91;46.98
69245;BME280;56357;52.304;4.870;2022-07-29T13:15:35;101973.41;;;25.99;46.88
69245;BME280;56357;52.304;4.870;2022-07-29T13:18:04;101964.78;;;26.04;46.95
69245;BME280;56357;52.304;4.870;2022-07-29T13:20:31;101977.84;;;26.05;46.29
69245;BME280;56357;52.304;4.870;2022-07-29T13:22:59;101967.28;;;26.10;46.38
69245;BME280;56357;52.304;4.870;2022-07-29T13:25:28;101976.25;;;26.17;46.52
69245;BME280;56357;52.304;4.870;2022-07-29T13:27:55;101977.66;;;26.20;46.47
69245;BME280;56357;52.304;4.870;2022-07-29T13:30:22;101978.19;;;26.22;46.37
69245;BME280;56357;52.304;4.870;2022-07-29T13:32:51;101974.72;;;26.25;46.31
69245;BME280;56357;52.304;4.870;2022-07-29T13:35:19;101971.50;;;26.32;45.89
69245;BME280;56357;52.304;4.870;2022-07-29T13:37:46;101973.91;;;26.38;45.96
69245;BME280;56357;52.304;4.870;2022-07-29T13:40:13;101976.06;;;26.46;46.04
69245;BME280;56357;52.304;4.870;2022-07-29T13:42:40;101970.28;;;26.51;46.20
69245;BME280;56357;52.304;4.870;2022-07-29T13:45:08;101964.19;;;26.58;46.17
69245;BME280;56357;52.304;4.870;2022-07-29T13:47:35;101971.69;;;26.67;45.91
69245;BME280;56357;52.304;4.870;2022-07-29T13:50:03;101965.94;;;26.72;46.24